Hlavní strana
METAR-TAF:

METAR-TAF

Letiště :

Letiště Řím-Fiumicino

Řím-Fiumicino, Itálie

zeměpisná šířka: 41-48N, zeměpisná délka: 012-14E, výška: 2 m

Aktuální stav počasí

Zpráva byla vytvořena před 25 minutami, v 08:20 UTC
Východní vítr 5 kt
Teplota 12°C
Vlhkost vzduchu 94%
Tlak 1021 hPa
Viditelnost 10 km a více
Polojasno ve výšce 2000 ft
Oblačno až skoro zataženo ve výšce 4000 ft

METAR: LIRF 080820Z 09005KT 9999 SCT020 BKN040 12/11 Q1021 NOSIG

Čas: 09:45 (08:45 UTC)

Předpověď počasí

Zpráva byla vytvořena před 3 hodinami a 45 minutami, v 05:00 UTC
Předpověď platná od 08 v 06 UTC do 09 v 12 UTC
vítr z různých směrů 5 kt
Viditelnost 10 km a více
Polojasno ve výšce 2000 ft
Změna
od 08 v 08 UTC do 08 v 10 UTC
Jihozápadní vítr 10 kt

TAF: LIRF 080500Z 0806/0912 VRB05KT 9999 SCT020 BECMG 0808/0810 23010KT

Stav a předpovědi počasí z více než 4 000 letišť (zprávy METAR a TAF).

Červené a žluté tečky na mapě představují dostupné meteorologické stanice.

Když kurzor umístíte na tečku, zobrazí se název stanice.

Pak kliknutím zobrazíte stav a předpověď počasí.

Chcete-li změnit mapu, kliknutím na zelené tlačítko se znaménkem +mapu přiblížíte, kliknutím na zelené tlačítko se znaménkem – mapu oddálíte a kliknutím na zelené šipky přejdete na sousední mapy.


METAR-TAF: